This is the latest recevied weather packets stored in our database for station/object PD0HRY-12. If no packets are shown the sender has not sent any weather packets the latest 10 day(s).
| Time | Temp. | Humidity | Pressure | Rain* | Wind** | Luminosity | Snow |
|---|---|---|---|---|---|---|---|
| 1777640401 | 23.33° C | 25% | 1016 hPa | - | - | - | - |
| 1777638604 | 22.78° C | 26% | 1017 hPa | - | - | - | - |
| 1777636802 | 22.22° C | 26% | 1017 hPa | - | - | - | - |
| 1777635001 | 21.67° C | 27% | 1017 hPa | - | - | - | - |
| 1777633204 | 21.67° C | 27% | 1018 hPa | - | - | - | - |
| 1777631402 | 20.56° C | 27% | 1018 hPa | - | - | - | - |
| 1777629601 | 20° C | 28% | 1018 hPa | - | - | - | - |
| 1777627804 | 19.44° C | 29% | 1018 hPa | - | - | - | - |
| 1777626002 | 18.89° C | 29% | 1018 hPa | - | - | - | - |
| 1777624201 | 17.78° C | 34% | 1019 hPa | - | - | - | - |
| 1777622404 | 16.67° C | 36% | 1019 hPa | - | - | - | - |
| 1777620602 | 15.56° C | 40% | 1019 hPa | - | - | - | - |
| 1777618801 | 14.44° C | 45% | 1019 hPa | - | - | - | - |
| 1777617004 | 13.33° C | 49% | 1019 hPa | - | - | - | - |
| 1777615202 | 12.22° C | 52% | 1019 hPa | - | - | - | - |
| 1777613400 | 11.67° C | 53% | 1019 hPa | - | - | - | - |
| 1777611603 | 11.11° C | 54% | 1019 hPa | - | - | - | - |
| 1777609802 | 10.56° C | 56% | 1019 hPa | - | - | - | - |
| 1777608000 | 10.56° C | 56% | 1019 hPa | - | - | - | - |
| 1777606204 | 10.56° C | 55% | 1019 hPa | - | - | - | - |
| 1777604402 | 10.56° C | 53% | 1019 hPa | - | - | - | - |
| 1777602600 | 11.11° C | 53% | 1019 hPa | - | - | - | - |
| 1777600804 | 11.11° C | 52% | 1019 hPa | - | - | - | - |
| 1777599002 | 11.67° C | 52% | 1019 hPa | - | - | - | - |
| 1777597205 | 11.67° C | 50% | 1019 hPa | - | - | - | - |
* Rain since midnight (hover to see other rain measurements)
** Current wind speed in m/s (hover to see current wind gust speed)